Richard Lloyd Jones Jr Airport
KRVS : now visible

Airfield :











YOU CAN JOIN US ON...

 
LOGIN :

Register | Disclaimer

   EN    FR    IT 

 









Legend :    VFR   Marginal VFR   IFR   Intensive IFR   Very Intensive IFR
Visi :
Ceiling :
>= 8 km
>= 3000ft
5 to 8 km
1000 to 3000 ft
1500m to 5 km
500 to 1000 ft
800 to 1500m
200 to 500 ft
< 800m
< 200 ft
Symbols :   Thunderstorms  Fog  Heavy snow  Heavy precipitations  Wind > 20 kt






- Airport Elevation : 638 ft


KRVS - Richard Lloyd Jones Jr

CURRENT METAR :
  • 181953Z 16009G18KT 130V200 10SM SCT034 OVC042 25/17 A2988 RMK AO2 SLP121 T02500167

EXPIRED METARs :
  • 181853Z 17012KT 10SM FEW030 OVC043 25/17 A2989 RMK AO2 SLP124 T02500172
  • 181753Z 16010G17KT 10SM FEW027 OVC038 24/17 A2990 RMK AO2 SLP129 T02440172 10250 20194 50002

TAF KRVS
Valid from the 18 at 18:00 until the 19 at 18:00 UTC


181720Z 1818/1918 17007KT P6SM SCT025 BKN035
TEMPO 1818/1822 BKN025
FM182200 18007KT P6SM VCSH BKN045
FM190100 16007KT P6SM BKN025
TEMPO 1901/1905 3SM -TSRA BKN015CB
FM190500 16007KT 5SM -TSRA BKN025CB
FM190900 16007KT P6SM BKN025
TEMPO 1909/1913 BKN015
KZKC FIR / North America



MET'MAP, your aeronautical weather chart ! - Copyright ORBIFLY December 2007 - Disclaimer

ORBIFLY MET'MAP TEAM :

Programming & Development : Alexandra Zaïnal
Concept & original design : Baudouin d'Aumeries
Assistance for programming : Marc-Olivier Méhu
Technical & hardware support : Manuel Goepfert

Contact : metmap@orbifly.com




SOURCES & CREDITS :

   NOAA       Earth
Advisory